createdAt,value
2016-04-14T00:00:39.952Z,27.94
2016-04-14T00:01:39.955Z,27.66
2016-04-14T00:02:39.957Z,27.83
2016-04-14T00:03:39.960Z,28.03
2016-04-14T00:04:39.977Z,28.13
2016-04-14T00:05:39.965Z,28.31
2016-04-14T00:06:39.983Z,27.64
2016-04-14T00:07:39.971Z,28.13
2016-04-14T00:08:39.957Z,27.74
2016-04-14T00:09:39.974Z,27.94
2016-04-14T00:10:39.961Z,28.14
2016-04-14T00:11:39.963Z,28.14
2016-04-14T00:12:39.982Z,28.03
2016-04-14T00:13:39.969Z,28.13
2016-04-14T00:14:39.971Z,28.13
2016-04-14T00:15:39.990Z,28.22
2016-04-14T00:16:39.993Z,27.83
2016-04-14T00:17:39.979Z,27.85
2016-04-14T00:18:39.982Z,28.04
2016-04-14T00:19:40.001Z,28.03
2016-04-14T00:20:39.988Z,27.93
2016-04-14T00:21:39.990Z,27.45
2016-04-14T00:22:39.993Z,27.37
2016-04-14T00:23:39.996Z,27.35
2016-04-14T00:24:39.982Z,27.08
2016-04-14T00:25:40.001Z,27.56
2016-04-14T00:26:40.003Z,27.17
2016-04-14T00:27:39.991Z,26.5
2016-04-14T00:28:39.993Z,26.7
2016-04-14T00:29:40.011Z,26.7
2016-04-14T00:30:40.015Z,27
2016-04-14T00:31:40.001Z,27.75
2016-04-14T00:32:40.003Z,27.45
2016-04-14T00:33:40.023Z,27.74
2016-04-14T00:34:40.009Z,28.22
2016-04-14T00:35:40.012Z,27.83
2016-04-14T00:36:40.038Z,28.13
2016-04-14T00:37:40.024Z,28.03
2016-04-14T00:38:40.012Z,28.13
2016-04-14T00:39:40.015Z,27.93
2016-04-14T00:40:40.032Z,28.51
2016-04-14T00:41:40.035Z,27.82
2016-04-14T00:42:40.038Z,28.11
2016-04-14T00:43:40.040Z,27.93
2016-04-14T00:44:40.028Z,27.93
2016-04-14T00:45:40.031Z,28.22
2016-04-14T00:46:40.034Z,27.93
2016-04-14T00:47:40.037Z,28.03
2016-04-14T00:48:40.039Z,28.03
2016-04-14T00:49:40.042Z,28.03
2016-04-14T00:50:40.029Z,27.93
2016-04-14T00:51:40.047Z,28.22
2016-04-14T00:52:40.033Z,28.03
2016-04-14T00:53:40.037Z,28.13
2016-04-14T00:54:40.039Z,27.74
2016-04-14T00:55:40.042Z,27.64
2016-04-14T00:56:40.044Z,28.22
2016-04-14T00:57:40.063Z,28.03
2016-04-14T00:58:40.050Z,27.55
2016-04-14T00:59:40.052Z,28.03
2016-04-14T01:00:40.055Z,27.45
2016-04-14T01:01:40.058Z,27.08
2016-04-14T01:02:40.044Z,26.21
2016-04-14T01:03:40.063Z,26.32
2016-04-14T01:04:40.066Z,26.51
2016-04-14T01:05:40.052Z,26.32
2016-04-14T01:06:40.072Z,26.79
2016-04-14T01:07:40.058Z,27.56
2016-04-14T01:08:40.061Z,27.26
2016-04-14T01:09:40.079Z,27.56
2016-04-14T01:10:40.066Z,27.93
2016-04-14T01:11:40.069Z,27.55
2016-04-14T01:12:40.071Z,27.64
2016-04-14T01:13:40.074Z,27.83
2016-04-14T01:14:40.077Z,27.45
2016-04-14T01:15:40.079Z,27.45
2016-04-14T01:16:40.082Z,27.64
2016-04-14T01:17:40.085Z,27.26
2016-04-14T01:18:40.081Z,27.56
2016-04-14T01:19:40.100Z,27.06
2016-04-14T01:20:40.087Z,26.79
2016-04-14T01:21:40.090Z,26.98
2016-04-14T01:22:40.092Z,26.98
2016-04-14T01:23:40.095Z,26.98
2016-04-14T01:24:40.098Z,26.5
2016-04-14T01:25:40.100Z,26.69
2016-04-14T01:26:40.103Z,26.69
2016-04-14T01:27:40.106Z,26.59
2016-04-14T01:28:40.062Z,25.92
2016-04-14T01:29:40.111Z,26.02
2016-04-14T01:30:40.114Z,26.42
2016-04-14T01:31:40.116Z,25.92
2016-04-14T01:32:40.402Z,26.03
2016-04-14T01:33:40.122Z,26.7
2016-04-14T01:34:40.125Z,26.32
2016-04-14T01:35:40.127Z,25.82
2016-04-14T01:36:40.130Z,26.32
2016-04-14T01:37:40.133Z,26.59
2016-04-14T01:38:40.135Z,25.82
2016-04-14T01:39:40.138Z,25.26
2016-04-14T01:40:40.157Z,25.35
2016-04-14T01:41:40.143Z,25.55
2016-04-14T01:42:40.146Z,25.74
2016-04-14T01:43:40.149Z,26.51
2016-04-14T01:44:40.152Z,26.69
2016-04-14T01:45:40.154Z,26.89
2016-04-14T01:46:40.157Z,26.59
2016-04-14T01:47:40.159Z,26.31
2016-04-14T01:48:40.162Z,26.12
2016-04-14T01:49:40.165Z,25.55
2016-04-14T01:50:40.168Z,25.26
2016-04-14T01:51:40.170Z,25.08
2016-04-14T01:52:40.158Z,25.74
2016-04-14T01:53:40.176Z,26.12
2016-04-14T01:54:40.178Z,25.92
2016-04-14T01:55:40.181Z,25.26
2016-04-14T01:56:40.183Z,25.18
2016-04-14T01:57:40.187Z,25.08
2016-04-14T01:58:40.205Z,25.18
2016-04-14T01:59:40.177Z,25.64
2016-04-14T02:00:40.195Z,25.64
2016-04-14T02:01:40.197Z,25.16
2016-04-14T02:02:40.200Z,24.88
2016-04-14T02:03:40.203Z,24.6
2016-04-14T02:04:40.205Z,24.21
2016-04-14T02:05:40.208Z,25.09
2016-04-14T02:06:40.210Z,25.85
2016-04-14T02:07:40.213Z,25.74
2016-04-14T02:08:40.216Z,25.45
2016-04-14T02:09:40.219Z,25.64
2016-04-14T02:10:40.268Z,26.03
2016-04-14T02:11:40.224Z,25.64
2016-04-14T02:12:40.226Z,25.45
2016-04-14T02:13:40.229Z,25.35
2016-04-14T02:14:40.232Z,25.64
2016-04-14T02:15:40.235Z,26.12
2016-04-14T02:16:40.238Z,26.4
2016-04-14T02:17:40.241Z,26.4
2016-04-14T02:18:40.243Z,26.69
2016-04-14T02:19:40.245Z,26.78
2016-04-14T02:20:40.249Z,25.82
2016-04-14T02:21:40.251Z,25.55
2016-04-14T02:22:40.254Z,24.87
2016-04-14T02:23:40.257Z,25.18
2016-04-14T02:24:40.259Z,25.27
2016-04-14T02:25:40.341Z,25.07
2016-04-14T02:26:40.249Z,25.93
2016-04-14T02:27:40.267Z,25.35
2016-04-14T02:28:40.269Z,24.98
2016-04-14T02:29:40.273Z,25.27
2016-04-14T02:30:40.275Z,25.84
2016-04-14T02:31:40.277Z,25.74
2016-04-14T02:32:40.281Z,25.74
2016-04-14T02:33:40.283Z,26.42
2016-04-14T02:34:40.286Z,26.21
2016-04-14T02:35:40.289Z,25.93
2016-04-14T02:36:40.291Z,26.12
2016-04-14T02:37:40.294Z,26.69
2016-04-14T02:38:40.297Z,27.35
2016-04-14T02:39:40.299Z,27.35
2016-04-14T02:40:40.349Z,27.16
2016-04-14T02:41:40.305Z,27.55
2016-04-14T02:42:40.307Z,27.45
2016-04-14T02:43:40.295Z,26.97
2016-04-14T02:44:40.298Z,26.59
2016-04-14T02:45:40.315Z,26.79
2016-04-14T02:46:40.303Z,26.89
2016-04-14T02:47:40.306Z,27.45
2016-04-14T02:48:40.308Z,27.16
2016-04-14T02:49:40.311Z,26.68
2016-04-14T02:50:40.314Z,27.27
2016-04-14T02:51:40.316Z,27.16
2016-04-14T02:52:40.320Z,26.79
2016-04-14T02:53:40.322Z,26.21
2016-04-14T02:54:40.325Z,26.98
2016-04-14T02:55:40.608Z,26.31
2016-04-14T02:56:40.330Z,26.21
2016-04-14T02:57:40.317Z,26.21
2016-04-14T02:58:40.319Z,26.89
2016-04-14T02:59:40.338Z,26.31
2016-04-14T03:00:40.341Z,26.89
2016-04-14T03:01:40.328Z,27.08
2016-04-14T03:02:40.330Z,27.16
2016-04-14T03:03:40.349Z,26.67
2016-04-14T03:04:40.335Z,26.29
2016-04-14T03:05:40.339Z,26.98
2016-04-14T03:06:40.357Z,26.31
2016-04-14T03:07:40.343Z,26.21
2016-04-14T03:08:40.347Z,25.82
2016-04-14T03:09:40.349Z,25.64
2016-04-14T03:10:40.368Z,25.63
2016-04-14T03:11:40.354Z,25.64
2016-04-14T03:12:40.357Z,25.92
2016-04-14T03:13:40.359Z,26.4
2016-04-14T03:14:40.363Z,26.02
2016-04-14T03:15:40.381Z,26.12
2016-04-14T03:16:40.367Z,26.5
2016-04-14T03:17:40.371Z,25.92
2016-04-14T03:18:40.373Z,25.63
2016-04-14T03:19:40.392Z,26.21
2016-04-14T03:20:40.379Z,25.63
2016-04-14T03:21:40.381Z,25.07
2016-04-14T03:22:40.384Z,25.74
2016-04-14T03:23:40.387Z,25.15
2016-04-14T03:24:40.389Z,25.26
2016-04-14T03:25:40.423Z,25.64
2016-04-14T03:26:40.411Z,26.98
2016-04-14T03:27:40.397Z,26.58
2016-04-14T03:28:40.386Z,26.58
2016-04-14T03:29:40.388Z,26.87
2016-04-14T03:30:40.406Z,26.58
2016-04-14T03:31:40.393Z,26.58
2016-04-14T03:32:40.396Z,26.59
2016-04-14T03:33:40.399Z,26.78
2016-04-14T03:34:40.401Z,27.74
2016-04-14T03:35:40.404Z,27.72
2016-04-14T03:36:40.406Z,26.58
2016-04-14T03:37:40.424Z,27.55
2016-04-14T03:38:40.412Z,27.05
2016-04-14T03:39:40.415Z,27.74
2016-04-14T03:40:40.417Z,27.62
2016-04-14T03:41:40.420Z,27.74
2016-04-14T03:42:40.423Z,27.62
2016-04-14T03:43:40.425Z,27.15
2016-04-14T03:44:40.412Z,26.68
2016-04-14T03:45:40.415Z,26.58
2016-04-14T03:46:40.417Z,26.31
2016-04-14T03:47:40.421Z,26.78
2016-04-14T03:48:40.423Z,26.97
2016-04-14T03:49:40.425Z,26.87
2016-04-14T03:50:40.429Z,27.16
2016-04-14T03:51:40.431Z,27.72
2016-04-14T03:52:40.434Z,27.82
2016-04-14T03:53:40.420Z,27.55
2016-04-14T03:54:40.423Z,27.72
2016-04-14T03:55:40.536Z,27.34
2016-04-14T03:56:40.429Z,27.26
2016-04-14T03:57:40.431Z,27.05
2016-04-14T03:58:40.433Z,26.87
2016-04-14T03:59:40.436Z,26.67
2016-04-14T04:00:40.455Z,27.16
2016-04-14T04:01:40.458Z,27.26
2016-04-14T04:02:40.444Z,27.05
2016-04-14T04:03:40.447Z,26.95
2016-04-14T04:04:40.435Z,27.24
2016-04-14T04:05:40.452Z,27.64
2016-04-14T04:06:40.455Z,27.06
2016-04-14T04:07:40.443Z,26.78
2016-04-14T04:08:40.445Z,26.58
2016-04-14T04:09:40.449Z,26.97
2016-04-14T04:10:40.529Z,27.45
2016-04-14T04:11:40.453Z,26.78
2016-04-14T04:12:40.457Z,26.2
2016-04-14T04:13:40.459Z,26.58
2016-04-14T04:14:40.462Z,26.2
2016-04-14T04:15:40.449Z,26.11
2016-04-14T04:16:40.451Z,26.1
2016-04-14T04:17:40.454Z,26.11
2016-04-14T04:18:40.457Z,25.91
2016-04-14T04:19:40.522Z,25.92
2016-04-14T04:20:40.478Z,25.82
2016-04-14T04:21:40.465Z,26.02
2016-04-14T04:22:40.484Z,25.44
2016-04-14T04:23:40.470Z,25.45
2016-04-14T04:24:40.473Z,25.45
2016-04-14T04:25:40.475Z,25.07
2016-04-14T04:26:40.478Z,25.93
2016-04-14T04:27:40.497Z,25.92
2016-04-14T04:28:40.484Z,25.82
2016-04-14T04:29:40.486Z,25.92
2016-04-14T04:30:40.488Z,25.54
2016-04-14T04:31:40.492Z,24.97
2016-04-14T04:32:40.494Z,24.87
2016-04-14T04:33:40.497Z,25.45
2016-04-14T04:34:40.500Z,24.87
2016-04-14T04:35:40.502Z,24.49
2016-04-14T04:36:40.505Z,24.87
2016-04-14T04:37:40.508Z,25.26
2016-04-14T04:38:40.510Z,25.82
2016-04-14T04:39:40.560Z,25.44
2016-04-14T04:40:40.515Z,25.34
2016-04-14T04:41:40.518Z,25.84
2016-04-14T04:42:40.521Z,25.92
2016-04-14T04:43:40.524Z,26.02
2016-04-14T04:44:40.526Z,26.21
2016-04-14T04:45:40.529Z,26.31
2016-04-14T04:46:40.532Z,26.2
2016-04-14T04:47:40.534Z,26.68
2016-04-14T04:48:40.521Z,26.29
2016-04-14T04:49:40.524Z,25.91
2016-04-14T04:50:40.526Z,26.02
2016-04-14T04:51:40.545Z,25.82
2016-04-14T04:52:40.532Z,26.59
2016-04-14T04:53:40.535Z,25.71
2016-04-14T04:54:40.381Z,24.96
2016-04-14T04:55:40.540Z,25.26
2016-04-14T04:56:40.543Z,25.07
2016-04-14T04:57:40.545Z,25.63
2016-04-14T04:58:40.548Z,25.73
2016-04-14T04:59:40.550Z,26.2
2016-04-14T05:00:40.553Z,26.58
2016-04-14T05:01:40.557Z,26.78
2016-04-14T05:02:40.559Z,26.57
2016-04-14T05:03:40.546Z,26.97
2016-04-14T05:04:40.550Z,26.68
2016-04-14T05:05:40.552Z,26.31
2016-04-14T05:06:40.555Z,26.68
2016-04-14T05:07:40.557Z,26.39
2016-04-14T05:08:40.560Z,26.79
2016-04-14T05:09:40.562Z,26.57
2016-04-14T05:10:40.566Z,26.29
2016-04-14T05:11:40.568Z,26.2
2016-04-14T05:12:40.555Z,26.39
2016-04-14T05:13:40.588Z,26.1
2016-04-14T05:14:40.635Z,26.48
2016-04-14T05:15:40.666Z,25.91
2016-04-14T05:16:40.729Z,26.5
2016-04-14T05:17:40.761Z,26.2
2016-04-14T05:18:40.798Z,26.58
2016-04-14T05:19:40.834Z,26.48
2016-04-14T05:20:40.836Z,25.91
2016-04-14T05:21:40.855Z,25.05
2016-04-14T05:22:40.874Z,25.82
2016-04-14T05:23:40.890Z,24.49
2016-04-14T05:24:40.914Z,24.2
2016-04-14T05:25:40.906Z,24.02
2016-04-14T05:26:40.914Z,24.4
2016-04-14T05:27:40.923Z,24.77
2016-04-14T05:28:40.931Z,24.39
2016-04-14T05:29:40.936Z,24.02
2016-04-14T05:30:40.925Z,23.34
2016-04-14T05:31:40.946Z,22.97
2016-04-14T05:32:40.936Z,23.25
2016-04-14T05:33:40.955Z,23.82
2016-04-14T05:34:40.958Z,23.25
2016-04-14T05:35:40.947Z,23.16
2016-04-14T05:36:40.951Z,23.16
2016-04-14T05:37:40.969Z,23.25
2016-04-14T05:38:40.972Z,23.25
2016-04-14T05:39:40.975Z,23.25
2016-04-14T05:40:40.978Z,23.25
2016-04-14T05:41:40.980Z,23.07
2016-04-14T05:42:40.983Z,22.87
2016-04-14T05:43:41.001Z,22.97
2016-04-14T05:44:40.988Z,23.25
2016-04-14T05:45:40.991Z,22.97
2016-04-14T05:46:40.994Z,23.35
2016-04-14T05:47:41.013Z,22.49
2016-04-14T05:48:40.999Z,21.92
2016-04-14T05:49:41.018Z,21.64
2016-04-14T05:50:41.021Z,22.02
2016-04-14T05:51:41.023Z,22.02
2016-04-14T05:52:41.026Z,21.54
2016-04-14T05:53:41.029Z,20.78
2016-04-14T05:54:41.031Z,21.26
2016-04-14T05:55:41.049Z,21.45
2016-04-14T05:56:41.036Z,20.97
2016-04-14T05:57:41.054Z,21.07
2016-04-14T05:58:41.057Z,20.59
2016-04-14T05:59:41.045Z,20.31
2016-04-14T06:00:41.048Z,20.21
2016-04-14T06:01:41.065Z,20.59
2016-04-14T06:02:41.068Z,20.11
2016-04-14T06:03:41.071Z,20.21
2016-04-14T06:04:41.073Z,20.31
2016-04-14T06:05:41.092Z,20.79
2016-04-14T06:06:41.078Z,20.69
2016-04-14T06:07:41.081Z,20.69
2016-04-14T06:08:41.083Z,20.69
2016-04-14T06:09:41.102Z,20.4
2016-04-14T06:10:41.105Z,20.4
2016-04-14T06:11:41.107Z,20.4
2016-04-14T06:12:41.110Z,20.79
2016-04-14T06:13:41.113Z,20.59
2016-04-14T06:14:41.115Z,20.31
2016-04-14T06:15:41.118Z,20.69
2016-04-14T06:16:41.137Z,20.31
2016-04-14T06:17:41.140Z,19.92
2016-04-14T06:18:41.126Z,19.45
2016-04-14T06:19:41.146Z,19.73
2016-04-14T06:20:41.148Z,20.21
2016-04-14T06:21:41.151Z,20.03
2016-04-14T06:22:41.153Z,19.83
2016-04-14T06:23:41.156Z,19.64
2016-04-14T06:24:41.002Z,19.65
2016-04-14T06:25:41.162Z,18.96
2016-04-14T06:26:41.165Z,19.17
2016-04-14T06:27:41.182Z,19.55
2016-04-14T06:28:41.170Z,19.17
2016-04-14T06:29:41.173Z,18.19
2016-04-14T06:30:41.175Z,17.92
2016-04-14T06:31:41.193Z,17.34
2016-04-14T06:32:41.180Z,16.39
2016-04-14T06:33:41.183Z,16.59
2016-04-14T06:34:41.200Z,15.72
2016-04-14T06:35:41.203Z,15.34
2016-04-14T06:36:41.222Z,15.35
2016-04-14T06:37:41.208Z,15.64
2016-04-14T06:38:41.211Z,15.92
2016-04-14T06:39:41.214Z,15.62
2016-04-14T06:40:41.249Z,14.95
2016-04-14T06:41:41.236Z,14.87
2016-04-14T06:42:41.254Z,14.39
2016-04-14T06:43:41.257Z,14.19
2016-04-14T06:44:41.259Z,13.71
2016-04-14T06:45:41.340Z,13.73
2016-04-14T06:46:41.280Z,13.72
2016-04-14T06:47:41.283Z,14.1
2016-04-14T06:48:41.301Z,14.2
2016-04-14T06:49:41.304Z,13.82
2016-04-14T06:50:41.306Z,14.01
2016-04-14T06:51:41.324Z,14.48
2016-04-14T06:52:41.327Z,13.81
2016-04-14T06:53:41.330Z,13.72
2016-04-14T06:54:41.333Z,13.43
2016-04-14T06:55:41.351Z,13.14
2016-04-14T06:56:41.292Z,12.76
2016-04-14T06:57:41.373Z,12.47
2016-04-14T06:58:41.360Z,12.28
2016-04-14T06:59:41.379Z,11.7
2016-04-14T07:00:41.381Z,13.06
2016-04-14T07:01:41.399Z,13.24
2016-04-14T07:02:41.402Z,13.92
2016-04-14T07:03:41.420Z,14.78
2016-04-14T07:04:41.424Z,15.84
2016-04-14T07:05:41.473Z,16.78
2016-04-14T07:06:41.440Z,16.97
2016-04-14T07:07:41.458Z,17.83
2016-04-14T07:08:41.454Z,18.12
2016-04-14T07:09:41.457Z,18.79
2016-04-14T07:10:41.464Z,19.26
2016-04-14T07:11:41.360Z,20.89
2016-04-14T07:12:41.472Z,21.06
2016-04-14T07:13:41.334Z,20.2
2016-04-14T07:14:41.485Z,19.83
2016-04-14T07:15:41.503Z,19.45
2016-04-14T07:16:41.500Z,20.13
2016-04-14T07:17:41.552Z,20.4
2016-04-14T07:18:41.507Z,21.75
2016-04-14T07:19:41.525Z,20.78
2016-04-14T07:20:41.528Z,20.87
2016-04-14T07:21:41.515Z,20.98
2016-04-14T07:22:41.565Z,20.39
2016-04-14T07:23:41.535Z,21.37
2016-04-14T07:24:41.538Z,20.97
2016-04-14T07:25:41.541Z,20.97
2016-04-14T07:26:41.543Z,21.07
2016-04-14T07:27:41.562Z,20.98
2016-04-14T07:28:41.564Z,20.69
2016-04-14T07:29:41.567Z,20.79
2016-04-14T07:30:41.570Z,20.5
2016-04-14T07:31:41.573Z,20.89
2016-04-14T07:32:41.575Z,20.79
2016-04-14T07:33:41.594Z,20.89
2016-04-14T07:34:41.597Z,20.69
2016-04-14T07:35:41.442Z,20.31
2016-04-14T07:36:41.602Z,20.89
2016-04-14T07:37:41.605Z,21.65
2016-04-14T07:38:41.623Z,20.87
2016-04-14T07:39:41.611Z,20.79
2016-04-14T07:40:41.645Z,20.61
2016-04-14T07:41:41.756Z,20.21
2016-04-14T07:42:41.650Z,20.21
2016-04-14T07:43:41.636Z,20.51
2016-04-14T07:44:41.639Z,19.93
2016-04-14T07:45:41.642Z,20.13
2016-04-14T07:46:41.660Z,19.84
2016-04-14T07:47:41.663Z,19.94
2016-04-14T07:48:41.681Z,20.04
2016-04-14T07:49:41.668Z,19.84
2016-04-14T07:50:41.671Z,19.66
2016-04-14T07:51:41.689Z,19.65
2016-04-14T07:52:41.693Z,19.85
2016-04-14T07:53:41.695Z,19.66
2016-04-14T07:54:41.698Z,19.66
2016-04-14T07:55:41.701Z,19.66
2016-04-14T07:56:41.640Z,19.07
2016-04-14T07:57:41.721Z,19.47
2016-04-14T07:58:41.723Z,18.6
2016-04-14T07:59:41.742Z,18.7
2016-04-14T08:00:41.744Z,18.7
2016-04-14T08:01:41.747Z,19.28
2016-04-14T08:02:41.750Z,18.51
2016-04-14T08:03:41.768Z,19.47
2016-04-14T08:04:41.771Z,19.07
2016-04-14T08:05:41.773Z,19.46
2016-04-14T08:06:41.776Z,18.99
2016-04-14T08:07:41.795Z,18.89
2016-04-14T08:08:41.669Z,18.6
2016-04-14T08:09:41.868Z,18.99
2016-04-14T08:10:41.809Z,18.99
2016-04-14T08:11:41.671Z,18.89
2016-04-14T08:12:41.814Z,18.8
2016-04-14T08:13:41.833Z,18.61
2016-04-14T08:14:41.836Z,17.83
2016-04-14T08:15:41.838Z,18.61
2016-04-14T08:16:41.841Z,19
2016-04-14T08:17:41.844Z,18.41
2016-04-14T08:18:41.862Z,18.22
2016-04-14T08:19:41.864Z,18.41
2016-04-14T08:20:41.867Z,18.99
2016-04-14T08:21:41.869Z,18.41
2016-04-14T08:22:41.888Z,18.71
2016-04-14T08:23:41.891Z,18.79
2016-04-14T08:24:41.987Z,18.41
2016-04-14T08:25:41.896Z,18.61
2016-04-14T08:26:41.929Z,18.71
2016-04-14T08:27:41.916Z,18.61
2016-04-14T08:28:41.919Z,18.51
2016-04-14T08:29:41.922Z,18.41
2016-04-14T08:30:41.941Z,18.51
2016-04-14T08:31:41.943Z,18.51
2016-04-14T08:32:41.946Z,18.79
2016-04-14T08:33:41.965Z,18.31
2016-04-14T08:34:41.967Z,18.79
2016-04-14T08:35:41.985Z,18.13
2016-04-14T08:36:41.980Z,18.12
2016-04-14T08:37:42.295Z,18.6
2016-04-14T08:38:42.001Z,18.61
2016-04-14T08:39:42.004Z,18.02
2016-04-14T08:40:42.007Z,18.22
2016-04-14T08:41:42.072Z,18.13
2016-04-14T08:42:42.028Z,17.74
2016-04-14T08:43:42.031Z,17.74
2016-04-14T08:44:42.033Z,17.46
2016-04-14T08:45:42.036Z,16.97
2016-04-14T08:46:42.038Z,17.16
2016-04-14T08:47:42.041Z,17.27
2016-04-14T08:48:42.059Z,17.56
2016-04-14T08:49:42.061Z,16.97
2016-04-14T08:50:42.830Z,17.74
2016-04-14T08:51:42.082Z,17.07
2016-04-14T08:52:42.085Z,17.36
2016-04-14T08:53:42.088Z,17.65
2016-04-14T08:54:42.107Z,17.55
2016-04-14T08:55:42.094Z,17.83
2016-04-14T08:56:42.065Z,18.22
2016-04-14T08:57:42.130Z,17.93
2016-04-14T08:58:42.117Z,17.74
2016-04-14T08:59:42.135Z,17.93
2016-04-14T09:00:42.138Z,17.84
2016-04-14T09:01:42.141Z,17.74
2016-04-14T09:02:42.144Z,17.94
2016-04-14T09:03:42.163Z,17.65
2016-04-14T09:04:42.165Z,17.74
2016-04-14T09:05:42.168Z,18.13
2016-04-14T09:06:42.171Z,18.04
2016-04-14T09:07:42.204Z,18.04
2016-04-14T09:08:42.192Z,17.94
2016-04-14T09:09:42.209Z,18.04
2016-04-14T09:10:42.197Z,18.23
2016-04-14T09:11:42.324Z,18.13
2016-04-14T09:12:42.233Z,18.13
2016-04-14T09:13:42.220Z,18.23
2016-04-14T09:14:42.222Z,18.33
2016-04-14T09:15:42.242Z,18.13
2016-04-14T09:16:42.259Z,18.13
2016-04-14T09:17:42.262Z,17.74
2016-04-14T09:18:42.265Z,18.13
2016-04-14T09:19:42.283Z,17.94
2016-04-14T09:20:42.270Z,18.04
2016-04-14T09:21:42.288Z,18.13
2016-04-14T09:22:42.291Z,18.03
2016-04-14T09:23:42.293Z,18.13
2016-04-14T09:24:42.312Z,18.13
2016-04-14T09:25:42.315Z,18.13
2016-04-14T09:26:42.318Z,18.22
2016-04-14T09:27:42.320Z,18.03
2016-04-14T09:28:42.355Z,18.22
2016-04-14T09:29:42.341Z,18.13
2016-04-14T09:30:42.360Z,18.41
2016-04-14T09:31:42.362Z,18.13
2016-04-14T09:32:42.365Z,17.93
2016-04-14T09:33:42.368Z,17.93
2016-04-14T09:34:42.370Z,18.03
2016-04-14T09:35:42.404Z,18.13
2016-04-14T09:36:42.407Z,18.13
2016-04-14T09:37:42.426Z,18.13
2016-04-14T09:38:42.413Z,18.22
2016-04-14T09:39:42.415Z,18.7
2016-04-14T09:40:42.465Z,18.6
2016-04-14T09:41:42.420Z,18.79
2016-04-14T09:42:42.423Z,18.7
2016-04-14T09:43:42.441Z,18.89
2016-04-14T09:44:42.444Z,18.6
2016-04-14T09:45:42.462Z,18.8
2016-04-14T09:46:42.464Z,18.22
2016-04-14T09:47:42.452Z,18.71
2016-04-14T09:48:42.470Z,18.31
2016-04-14T09:49:42.473Z,18.41
2016-04-14T09:50:42.507Z,18.21
2016-04-14T09:51:42.494Z,18.6
2016-04-14T09:52:42.497Z,18.99
2016-04-14T09:53:42.499Z,18.7
2016-04-14T09:54:42.502Z,18.79
2016-04-14T09:55:42.520Z,18.99
2016-04-14T09:56:42.585Z,18.89
2016-04-14T09:57:42.541Z,18.99
2016-04-14T09:58:42.591Z,18.79
2016-04-14T09:59:42.562Z,18.51
2016-04-14T10:00:42.534Z,18.32
2016-04-14T10:01:42.552Z,18.71
2016-04-14T10:02:42.555Z,18.8
2016-04-14T10:03:42.573Z,18.71
2016-04-14T10:04:42.560Z,18.32
2016-04-14T10:05:42.579Z,18.51
2016-04-14T10:06:42.597Z,18.41
2016-04-14T10:07:42.585Z,18.51
2016-04-14T10:08:42.603Z,18.7
2016-04-14T10:09:42.606Z,18.7
2016-04-14T10:10:42.624Z,18.12
2016-04-14T10:11:42.626Z,18.89
2016-04-14T10:12:42.629Z,18.89
2016-04-14T10:13:42.631Z,18.9
2016-04-14T10:14:42.634Z,18.8
2016-04-14T10:15:42.636Z,18.9
2016-04-14T10:16:42.639Z,18.89
2016-04-14T10:17:42.658Z,18.7
2016-04-14T10:18:42.661Z,18.6
2016-04-14T10:19:42.679Z,18.99
2016-04-14T10:20:42.681Z,18.89
2016-04-14T10:21:42.700Z,18.6
2016-04-14T10:22:42.702Z,18.51
2016-04-14T10:23:42.689Z,18.7
2016-04-14T10:24:42.708Z,18.79
2016-04-14T10:25:42.710Z,18.79
2016-04-14T10:26:42.713Z,18.6
2016-04-14T10:27:42.731Z,18.7
2016-04-14T10:28:42.734Z,18.51
2016-04-14T10:29:42.737Z,19.27
2016-04-14T10:30:42.740Z,18.69
2016-04-14T10:31:42.758Z,18.89
2016-04-14T10:32:42.745Z,18.79
2016-04-14T10:33:42.763Z,18.51
2016-04-14T10:34:42.766Z,18.99
2016-04-14T10:35:42.768Z,18.79
2016-04-14T10:36:42.913Z,18.02
2016-04-14T10:37:43.321Z,18.21
2016-04-14T10:38:42.793Z,18.21
2016-04-14T10:39:42.796Z,18.79
2016-04-14T10:40:42.814Z,18.02
2016-04-14T10:41:42.817Z,18.41
2016-04-14T10:42:42.819Z,18.7
2016-04-14T10:43:42.822Z,18.7
2016-04-14T10:44:42.824Z,18.51
2016-04-14T10:45:42.843Z,18.12
2016-04-14T10:46:42.845Z,18.41
2016-04-14T10:47:42.848Z,17.92
2016-04-14T10:48:42.867Z,18.12
2016-04-14T10:49:42.869Z,18.21
2016-04-14T10:50:42.872Z,17.62
2016-04-14T10:51:42.889Z,18.21
2016-04-14T10:52:42.892Z,18.21
2016-04-14T10:53:42.894Z,18.41
2016-04-14T10:54:42.897Z,17.92
2016-04-14T10:55:42.900Z,17.92
2016-04-14T10:56:42.919Z,18.11
2016-04-14T10:57:42.922Z,18.02
2016-04-14T10:58:42.924Z,18.79
2016-04-14T10:59:42.943Z,18.79
2016-04-14T11:00:42.960Z,18.31
2016-04-14T11:01:42.948Z,18.6
2016-04-14T11:02:42.951Z,17.73
2016-04-14T11:03:42.969Z,18.31
2016-04-14T11:04:42.957Z,18.21
2016-04-14T11:05:42.991Z,18.6
2016-04-14T11:06:42.977Z,17.92
2016-04-14T11:07:42.980Z,18.12
2016-04-14T11:08:42.998Z,17.73
2016-04-14T11:09:43.001Z,17.91
2016-04-14T11:10:43.020Z,18.41
2016-04-14T11:11:43.022Z,18.7
2016-04-14T11:12:43.025Z,18.51
2016-04-14T11:13:43.027Z,18.51
2016-04-14T11:14:43.031Z,18.7
2016-04-14T11:15:43.048Z,17.92
2016-04-14T11:16:43.051Z,18.7
2016-04-14T11:17:43.069Z,18.79
2016-04-14T11:18:43.119Z,18.21
2016-04-14T11:19:43.090Z,18.21
2016-04-14T11:20:43.077Z,18.12
2016-04-14T11:21:43.080Z,18.6
2016-04-14T11:22:43.097Z,18.6
2016-04-14T11:23:43.116Z,18.51
2016-04-14T11:24:43.119Z,18.6
2016-04-14T11:25:43.106Z,17.83
2016-04-14T11:26:43.109Z,17.24
2016-04-14T11:27:43.127Z,17.92
2016-04-14T11:28:43.130Z,17.91
2016-04-14T11:29:43.132Z,18.21
2016-04-14T11:30:43.151Z,18.51
2016-04-14T11:31:43.138Z,18.31
2016-04-14T11:32:43.157Z,18.11
2016-04-14T11:33:43.175Z,18.59
2016-04-14T11:34:43.176Z,18.3
2016-04-14T11:35:43.179Z,18.4
2016-04-14T11:36:43.182Z,18.11
2016-04-14T11:37:43.216Z,18.01
2016-04-14T11:38:43.203Z,17.91
2016-04-14T11:39:43.205Z,17.24
2016-04-14T11:40:43.224Z,17.62
2016-04-14T11:41:43.227Z,18.3
2016-04-14T11:42:43.245Z,18.69
2016-04-14T11:43:43.233Z,18.69
2016-04-14T11:44:43.235Z,18.01
2016-04-14T11:45:43.253Z,17.91
2016-04-14T11:46:43.271Z,17.52
2016-04-14T11:47:43.274Z,18.21
2016-04-14T11:48:43.277Z,18.3
2016-04-14T11:49:43.138Z,17.43
2016-04-14T11:50:43.271Z,18
2016-04-14T11:51:43.290Z,18.11
2016-04-14T11:52:43.293Z,18.3
2016-04-14T11:53:43.342Z,17.91
2016-04-14T11:54:43.313Z,18.49
2016-04-14T11:55:43.363Z,18.11
2016-04-14T11:56:43.318Z,17.91
2016-04-14T11:57:43.321Z,16.56
2016-04-14T11:58:43.323Z,16.94
2016-04-14T11:59:43.342Z,18.01
2016-04-14T12:00:43.345Z,17.91
2016-04-14T12:01:43.348Z,18.69
2016-04-14T12:02:43.351Z,18.49
2016-04-14T12:03:43.353Z,18.4
2016-04-14T12:04:43.372Z,18.11
2016-04-14T12:05:43.374Z,18.21
2016-04-14T12:06:43.392Z,18.3
2016-04-14T12:07:43.395Z,18.01
2016-04-14T12:08:43.397Z,17.71
2016-04-14T12:09:43.244Z,18
2016-04-14T12:10:43.418Z,18.77
2016-04-14T12:11:43.422Z,18.59
2016-04-14T12:12:43.424Z,18.59
2016-04-14T12:13:43.427Z,17.72
2016-04-14T12:14:43.429Z,17.62
2016-04-14T12:15:43.447Z,18.29
2016-04-14T12:16:43.466Z,18.69
2016-04-14T12:17:43.453Z,18.3
2016-04-14T12:18:43.456Z,18.01
2016-04-14T12:19:43.474Z,17.72
2016-04-14T12:20:43.477Z,18.01
2016-04-14T12:21:43.495Z,18.21
2016-04-14T12:22:43.498Z,17.91
2016-04-14T12:23:43.501Z,18.11
2016-04-14T12:24:43.503Z,18.11
2016-04-14T12:25:43.521Z,18.01
2016-04-14T12:26:43.509Z,17.52
2016-04-14T12:27:43.526Z,17.72
2016-04-14T12:28:43.530Z,17.82
2016-04-14T12:29:43.532Z,17.14
2016-04-14T12:30:43.551Z,17.33
2016-04-14T12:31:43.537Z,16.75
2016-04-14T12:32:43.556Z,17.52
2016-04-14T12:33:43.559Z,17.43
2016-04-14T12:34:43.577Z,17.91
2016-04-14T12:35:43.564Z,17.91
2016-04-14T12:36:43.597Z,17.82
2016-04-14T12:37:43.600Z,18.21
2016-04-14T12:38:43.588Z,17.82
2016-04-14T12:39:43.591Z,18.21
2016-04-14T12:40:43.594Z,18.21
2016-04-14T12:41:43.627Z,18.59
2016-04-14T12:42:43.614Z,17.91
2016-04-14T12:43:43.616Z,18.39
2016-04-14T12:44:43.635Z,18.59
2016-04-14T12:45:43.638Z,18.1
2016-04-14T12:46:43.641Z,18.59
2016-04-14T12:47:43.659Z,18.88
2016-04-14T12:48:43.677Z,18.79
2016-04-14T12:49:43.664Z,18.21
2016-04-14T12:50:43.666Z,18.59
2016-04-14T12:51:43.685Z,18.68
2016-04-14T12:52:43.671Z,18.87
2016-04-14T12:53:43.690Z,17.03
2016-04-14T12:54:43.709Z,18.39
2016-04-14T12:55:43.696Z,18.59